Pelagia — PGRQ — position and weather

sailwx.info

Track history (hours):
 
Tides and Currents Weather Stations Pressure Air Temp Water Temp Dewpoint Dewpoint Depression Visibility Wind Speed Wind Dir Waves Ship Positions

Oceanographic research ship Pelagia (Netherlands)

Detailed information on ship capabilities available from University of Delaware's Ocean Information Center and ARCUS's ALIAS (Arctic Logistics Information and Support) project.

Last reported at 2020-Jan-14 09:00 UTC. Time now 2020-Jan-19 01:18 UTC.
Position N 25°36' W 077°36'.

Length 66 m; beam 13 m.

Type: Dredging. MMSI: 244925000.

Barometer 1024.7 mb

Date/timePositionNaut miles runAvg speedWind from/ knotsBaromVisibWave heightAir tempDewpointWater temp
2020-Jan-14 09:00N 25°36' W 077°36'8 8.1 1024.7
2020-Jan-14 08:00N 25°42' W 077°42'6 6.0 1024.8
2020-Jan-14 07:00N 25°48' W 077°42'8 8.1 1025.6
2020-Jan-14 06:00N 25°54' W 077°48'5 5.4 1026.0
2020-Jan-14 05:00N 25°54' W 077°54'8 8.1 1026.5
2020-Jan-14 04:00N 26°00' W 078°00'8 4.0 1027.1
2020-Jan-14 02:00N 26°06' W 078°06'5 5.4 1026.5
2020-Jan-14 01:00N 26°06' W 078°12'8 8.1 1026.1
2020-Jan-14 00:00N 26°12' W 078°18'5 5.4 1025.9
2020-Jan-13 23:00N 26°12' W 078°24'8 8.1 1025.8
2020-Jan-13 22:00N 26°18' W 078°30'8 8.1 1025.4
2020-Jan-13 21:00N 26°24' W 078°36'0 0.0 1025.6
2020-Jan-13 20:00N 26°24' W 078°36'8 8.1 1025.4
2020-Jan-13 19:00N 26°30' W 078°42'5 5.4 1025.9
2020-Jan-13 18:00N 26°30' W 078°48'0 0.0 1026.8
2020-Jan-13 17:00N 26°30' W 078°48'0 0.0 1027.5
2020-Jan-13 16:00N 26°30' W 078°48'0 0.0 1028.1
2020-Jan-13 15:00N 26°30' W 078°48'0 0.0 1028.3
2020-Jan-13 14:00N 26°30' W 078°48'5 5.4 1028.0
2020-Jan-13 13:00N 26°30' W 078°42'8 8.1 1027.3
2020-Jan-13 12:00N 26°24' W 078°36'0 0.0 1026.6
2020-Jan-13 11:00N 26°24' W 078°36'5 5.4 1026.1
2020-Jan-13 10:00N 26°24' W 078°30'8 8.1 1025.6
2020-Jan-13 09:00N 26°18' W 078°24'5 5.4 1025.1
2020-Jan-13 08:00N 26°18' W 078°18'5 5.4 1025.6
2020-Jan-13 07:00N 26°18' W 078°12'8 8.1 1026.1
2020-Jan-13 06:00N 26°12' W 078°06'0 0.0 1026.3
2020-Jan-13 05:00N 26°12' W 078°06'8 8.1 1026.5
2020-Jan-13 04:00N 26°06' W 078°00'5 5.4 1026.7
2020-Jan-13 03:00N 26°06' W 077°54'5 5.4 1026.7
2020-Jan-13 02:00N 26°06' W 077°48'5 5.4 1026.7
2020-Jan-13 01:00N 26°06' W 077°42'8 8.1 1026.6
2020-Jan-13 00:00N 26°00' W 077°36'1212.3 1026.8
2020-Jan-12 23:00N 25°54' W 077°24'8 8.1 1026.4
2020-Jan-12 22:00N 25°48' W 077°18'1110.8 1025.2
2020-Jan-12 21:00N 25°48' W 077°06'8 8.1 1024.5
2020-Jan-12 20:00N 25°42' W 077°00'1110.8 1025.1
2020-Jan-12 19:00N 25°42' W 076°48'8 8.1 1025.4
2020-Jan-12 18:00N 25°36' W 076°42'17 8.7 1025.9
2020-Jan-12 16:00N 25°30' W 076°24'8 8.1 1027.2
2020-Jan-12 15:00N 25°24' W 076°18'1212.4 1027.9
2020-Jan-12 14:00N 25°18' W 076°06'8 8.1 1027.2
2020-Jan-12 13:00N 25°12' W 076°00'8 8.1 1026.7
2020-Jan-12 12:00N 25°06' W 075°54'1212.4 1026.2
2020-Jan-12 11:00N 25°00' W 075°42'5 5.4 1025.9
2020-Jan-12 10:00N 25°00' W 075°36'8 8.1 1025.3
2020-Jan-12 09:00N 24°54' W 075°30'1212.4 1025.2
2020-Jan-12 08:00N 24°48' W 075°18'8 8.1 1025.1
2020-Jan-12 07:00N 24°42' W 075°12'1212.4 1025.0
2020-Jan-12 06:00N 24°36' W 075°00'8 8.1 1025.1
2020-Jan-12 05:00N 24°30' W 074°54'5 5.5 1025.2
2020-Jan-12 04:00N 24°30' W 074°48'1212.5 1025.5
2020-Jan-12 03:00N 24°24' W 074°36'8 8.1 1025.4
2020-Jan-12 02:00N 24°18' W 074°30'1212.5 1025.3
2020-Jan-12 01:00N 24°12' W 074°18'8 8.1 1025.1
2020-Jan-12 00:00N 24°06' W 074°12'8 8.1 1024.4
2020-Jan-11 23:00N 24°00' W 074°06'8 8.1 1023.9
2020-Jan-11 22:00N 23°54' W 074°00'18 8.8 1023.9
2020-Jan-11 20:00N 23°48' W 073°42'1312.5 1023.3
2020-Jan-11 19:00N 23°42' W 073°30'16 8.1 1023.5
2020-Jan-11 17:00N 23°30' W 073°18'1312.5 1024.9
2020-Jan-11 16:00N 23°24' W 073°06'6 5.5 1025.5
2020-Jan-11 15:00N 23°24' W 073°00'8 8.1 1025.8
2020-Jan-11 14:00N 23°18' W 072°54'1312.6 1025.5
2020-Jan-11 13:00N 23°12' W 072°42'8 8.2 1024.7
2020-Jan-11 12:00N 23°06' W 072°36'2010.2 1024.2
2020-Jan-11 10:00N 22°54' W 072°18'8 8.2 1023.2
2020-Jan-11 09:00N 22°48' W 072°12'1312.6 1023.0
2020-Jan-11 08:00N 22°42' W 072°00'6 5.5 1023.0
2020-Jan-11 07:00N 22°42' W 071°54'8 8.2 1023.2
2020-Jan-11 06:00N 22°36' W 071°48'1312.6 1023.6
2020-Jan-11 05:00N 22°30' W 071°36'8 8.2 1023.9
2020-Jan-11 04:00N 22°24' W 071°30'18 8.8 1024.0
2020-Jan-11 02:00N 22°18' W 071°12'8 8.2 1023.9
2020-Jan-11 01:00N 22°12' W 071°06'8 8.2 1023.3
2020-Jan-11 00:00N 22°06' W 071°00'8 8.2 1022.9
2020-Jan-10 23:00N 22°00' W 070°54'6 5.6 1022.3
2020-Jan-10 22:00N 22°00' W 070°48'1312.6 1021.8
2020-Jan-10 21:00N 21°54' W 070°36'8 8.2 1021.5
2020-Jan-10 20:00N 21°48' W 070°30'8 8.2 1021.5
2020-Jan-10 19:00N 21°42' W 070°24'1312.7 1021.4
2020-Jan-10 18:00N 21°36' W 070°12'8 8.2 1021.8
2020-Jan-10 17:00N 21°30' W 070°06'1312.7 1022.5
2020-Jan-10 16:00N 21°24' W 069°54'8 8.2 1023.7
2020-Jan-10 15:00N 21°18' W 069°48'1111.2 1024.4
2020-Jan-10 14:00N 21°18' W 069°36'8 8.2 1024.0
2020-Jan-10 13:00N 21°12' W 069°30'8 8.2 1023.4
2020-Jan-10 12:00N 21°06' W 069°24'8 8.2 1022.5
2020-Jan-10 11:00N 21°00' W 069°18'1312.7 1021.4
2020-Jan-10 10:00N 20°54' W 069°06'13 6.4 1020.8
2020-Jan-10 08:00N 20°48' W 068°54'1312.7 1020.9
2020-Jan-10 07:00N 20°42' W 068°42'8 8.2 1021.2
2020-Jan-10 06:00N 20°36' W 068°36'8 8.2 1021.6
2020-Jan-10 05:00N 20°30' W 068°30'1312.7 1022.1
2020-Jan-10 04:00N 20°24' W 068°18'8 8.2 1022.8
2020-Jan-10 03:00N 20°18' W 068°12'6 5.6 1023.0
2020-Jan-10 02:00N 20°18' W 068°06'8 8.2 1022.9
2020-Jan-10 01:00N 20°12' W 068°00'1312.8 1022.6
2020-Jan-10 00:00N 20°06' W 067°48'8 8.2 1022.1
2020-Jan-09 23:00N 20°00' W 067°42'8 8.2 1021.3
2020-Jan-09 22:00N 19°54' W 067°36'1312.8 1020.7
2020-Jan-09 21:00N 19°48' W 067°24'8 8.2 1020.8
2020-Jan-09 20:00N 19°42' W 067°18'1111.3 1020.4
2020-Jan-09 19:00N 19°42' W 067°06'8 8.2 1020.2
2020-Jan-09 18:00N 19°36' W 067°00'8 8.2 1020.8
2020-Jan-09 17:00N 19°30' W 066°54'1312.8 1021.6
2020-Jan-09 16:00N 19°24' W 066°42'8 8.2 1022.2
2020-Jan-09 15:00N 19°18' W 066°36'8 8.3 1022.7
2020-Jan-09 14:00N 19°12' W 066°30'1312.8 1022.6
2020-Jan-09 13:00N 19°06' W 066°18'8 8.3 1022.1
2020-Jan-09 12:00N 19°00' W 066°12'6 5.7 1021.3
2020-Jan-09 11:00N 19°00' W 066°06'8 8.3 1020.4
2020-Jan-09 10:00N 18°54' W 066°00'1312.8 1019.5
2020-Jan-09 09:00N 18°48' W 065°48'7 7.4 1018.9
2020-Jan-09 08:02N 18°43' W 065°42'135.9
2020-Jan-09 08:00N 18°42' W 065°42'8 8.3 1018.8
2020-Jan-09 07:00N 18°36' W 065°36'8 8.3 1018.7
2020-Jan-09 06:00N 18°30' W 065°30'1111.4 1019.1
2020-Jan-09 05:00N 18°30' W 065°18'8 8.3 1019.8
2020-Jan-09 04:00N 18°24' W 065°12'5 9.5 1020.2
2020-Jan-09 03:30N 18°21' W 065°08'4 7.3
2020-Jan-09 03:00N 18°18' W 065°06'510.8 1020.6
2020-Jan-09 02:30N 18°15' W 065°02'3 6.3
2020-Jan-09 02:00N 18°12' W 065°00'8 8.3 1020.4
2020-Jan-09 01:00N 18°06' W 064°54'8 8.3 1020.1
2020-Jan-09 00:00N 18°00' W 064°48'1312.9 1019.6
2020-Jan-08 23:00N 17°54' W 064°36'8 8.3 1019.0
2020-Jan-08 22:00N 17°48' W 064°30'8 8.3 1018.2
2020-Jan-08 21:00N 17°42' W 064°24'8 8.3 1017.9
2020-Jan-08 20:00N 17°36' W 064°18'8 8.3 1017.8
2020-Jan-08 19:00N 17°30' W 064°12'8 8.3 1017.6
2020-Jan-08 18:00N 17°24' W 064°06'1312.9 1017.8
2020-Jan-08 17:00N 17°18' W 063°54'8 8.3 1018.3
2020-Jan-08 16:00N 17°12' W 063°48'6 5.7 1019.1
2020-Jan-08 15:00N 17°12' W 063°42'8 8.3 1019.6
2020-Jan-08 14:00N 17°06' W 063°36'1312.9 1019.9
2020-Jan-08 13:00N 17°00' W 063°24'8 8.3 1019.5
2020-Jan-08 12:00N 16°54' W 063°18'8 8.3 1018.9
2020-Jan-08 11:00N 16°48' W 063°12'6 5.7 1018.2
2020-Jan-08 10:00N 16°48' W 063°06'1313.0 1017.3
2020-Jan-08 09:00N 16°42' W 062°54'8 8.3 1016.9
2020-Jan-08 08:00N 16°36' W 062°48'8 8.3 1016.5
2020-Jan-08 07:00N 16°30' W 062°42'6 5.8 1016.6
2020-Jan-08 06:00N 16°30' W 062°36'1313.0 1016.8
2020-Jan-08 05:00N 16°24' W 062°24'8 8.3 1017.4
2020-Jan-08 04:00N 16°18' W 062°18'1313.0 1017.6
2020-Jan-08 03:00N 16°12' W 062°06'8 8.3 1017.8
2020-Jan-08 02:00N 16°06' W 062°00'8 8.3 1017.8
2020-Jan-08 01:00N 16°00' W 061°54'1313.0 1017.4
2020-Jan-08 00:00N 15°54' W 061°42'8 8.3 1017.3
2020-Jan-07 23:00N 16°00' W 061°36'12 6.0 1017.1
2020-Jan-07 21:00N 16°12' W 061°36'0 0.0 1015.9
2020-Jan-07 20:00N 16°12' W 061°36'0 0.0 1015.6
2020-Jan-07 19:00N 16°12' W 061°36'0 0.0 1015.5
2020-Jan-07 18:00N 16°12' W 061°36'0 0.0 1015.5
2020-Jan-07 17:00N 16°12' W 061°36'0 0.0 1016.2
2020-Jan-07 16:00N 16°12' W 061°36'0 0.0 1016.9
2020-Jan-07 15:00N 16°12' W 061°36'0 0.0 1017.5
2020-Jan-07 14:00N 16°12' W 061°36'0 0.0 1017.8
2020-Jan-07 13:00N 16°12' W 061°36'0 0.0 1017.8
2020-Jan-07 12:00N 16°12' W 061°36'0 0.0 1017.0
2020-Jan-07 11:00N 16°12' W 061°36'0 0.0 1016.2
2020-Jan-07 10:00N 16°12' W 061°36'0 0.0 1015.4
2020-Jan-07 09:00N 16°12' W 061°36'0 0.0 1014.8
2020-Jan-07 08:00N 16°12' W 061°36'0 0.0 1014.6
2020-Jan-07 07:00N 16°12' W 061°36'0 0.0 1014.6
2020-Jan-07 06:00N 16°12' W 061°36'0 0.0 1014.8
2020-Jan-07 05:00N 16°12' W 061°36'0 0.0 1015.3
2020-Jan-07 04:00N 16°12' W 061°36'0 0.0 1015.9
2020-Jan-07 03:00N 16°12' W 061°36'0 0.0 1016.3
2020-Jan-07 02:00N 16°12' W 061°36'0 0.0 1016.3
2020-Jan-07 01:00N 16°12' W 061°36'0 0.0 1016.2
2020-Jan-07 00:00N 16°12' W 061°36'0 0.0 1015.8
2020-Jan-06 23:00N 16°12' W 061°36'0 0.0 1015.3
2020-Jan-06 22:00N 16°12' W 061°36'0 0.0 1014.8
2020-Jan-06 21:00N 16°12' W 061°36'0 0.0 1014.3
2020-Jan-06 20:00N 16°12' W 061°36'0 0.0 1013.9
2020-Jan-06 19:00N 16°12' W 061°36'0 0.0 1013.7
2020-Jan-06 18:00N 16°12' W 061°36'0 0.0 1013.8
2020-Jan-06 17:00N 16°12' W 061°36'0 0.0 1014.4
2020-Jan-06 16:00N 16°12' W 061°36'0 0.0 1015.4
2020-Jan-06 15:00N 16°12' W 061°36'0 0.0 1016.0
2020-Jan-06 14:00N 16°12' W 061°36'0 0.0 1016.3
2020-Jan-06 13:00N 16°12' W 061°36'0 0.0 1016.3
2020-Jan-06 12:00N 16°12' W 061°36'0 0.0 1015.9
2020-Jan-06 11:00N 16°12' W 061°36'0 0.0 1015.0
2020-Jan-06 10:00N 16°12' W 061°36'0 0.0 1013.9
2020-Jan-06 09:00N 16°12' W 061°36'0 0.0 1013.5
2020-Jan-06 08:00N 16°12' W 061°36'0 0.0 1013.3
2020-Jan-06 07:00N 16°12' W 061°36'0 0.0 1013.3
2020-Jan-06 06:00N 16°12' W 061°36'0 0.0 1013.9
2020-Jan-06 05:00N 16°12' W 061°36'0 0.0 1014.5
2020-Jan-06 04:00N 16°12' W 061°36'0 0.0 1014.9
2020-Jan-06 03:00N 16°12' W 061°36'0 0.0 1015.3
2020-Jan-06 02:00N 16°12' W 061°36'0 0.0 1015.5
2020-Jan-06 01:00N 16°12' W 061°36'0 0.0 1015.3
2020-Jan-06 00:00N 16°12' W 061°36'0 0.0 1015.1
2020-Jan-05 23:00N 16°12' W 061°36'0 0.0 1014.7
2020-Jan-05 22:00N 16°12' W 061°36'0 0.0 1014.2
2020-Jan-05 21:00N 16°12' W 061°36'0 0.0 1013.9
2020-Jan-05 20:00N 16°12' W 061°36'0 0.0 1013.8
2020-Jan-05 19:00N 16°12' W 061°36'0 0.0 1014.0
2020-Jan-05 18:00N 16°12' W 061°36'0 0.0 1014.5
2020-Jan-05 17:00N 16°12' W 061°36'0 0.0 1015.4
2020-Jan-05 16:00N 16°12' W 061°36'0 0.0 1016.3
2020-Jan-05 15:00N 16°12' W 061°36'0 0.0 1017.1
2020-Jan-05 14:00N 16°12' W 061°36'0 0.0 1017.3
2020-Jan-05 13:00N 16°12' W 061°36'0 0.0 1017.5
2020-Jan-05 12:00N 16°12' W 061°36'0 0.0 1017.0
2020-Jan-05 11:00N 16°12' W 061°36'0 0.0 1016.2
2020-Jan-05 10:00N 16°12' W 061°36'0 0.0 1015.5
2020-Jan-05 09:00N 16°12' W 061°36'0 0.0 1015.1
2020-Jan-05 08:00N 16°12' W 061°36'0 0.0 1015.1
2020-Jan-05 07:00N 16°12' W 061°36'0 0.0 1014.9
2020-Jan-05 06:00N 16°12' W 061°36'0 0.0 1015.6
2020-Jan-05 05:00N 16°12' W 061°36'0 0.0 1016.2
2020-Jan-05 04:00N 16°12' W 061°36'0 0.0 1016.8
2020-Jan-05 03:00N 16°12' W 061°36'0 0.0 1017.1
2020-Jan-05 02:00N 16°12' W 061°36'0 0.0 1017.5
2020-Jan-05 01:00N 16°12' W 061°36'0 0.0 1017.3
2020-Jan-05 00:00N 16°12' W 061°36'0 0.0 1016.9
2020-Jan-04 23:00N 16°12' W 061°36'0 0.0 1016.6
2020-Jan-04 22:00N 16°12' W 061°36'0 0.0 1016.2
2020-Jan-04 21:00N 16°12' W 061°36'0 0.0 1016.0
2020-Jan-04 20:00N 16°12' W 061°36'0 0.0 1015.7
2020-Jan-04 19:00N 16°12' W 061°36'0 0.0 1015.7
2020-Jan-04 18:00N 16°12' W 061°36'0 0.0 1016.0
2020-Jan-04 16:00N 16°12' W 061°36'0 0.0 1017.8
2020-Jan-04 15:00N 16°12' W 061°36'0 0.0 1018.8
2020-Jan-04 14:00N 16°12' W 061°36'0 0.0 1019.0
2020-Jan-04 13:00N 16°12' W 061°36'0 0.0 1019.1
2020-Jan-04 12:00N 16°12' W 061°36'0 0.0 1018.4
2020-Jan-04 11:00N 16°12' W 061°36'0 0.0 1017.5
2020-Jan-04 10:00N 16°12' W 061°36'0 0.0 1016.8
2020-Jan-04 09:00N 16°12' W 061°36'   1016.5
Track history (hours):
 
Tides and Currents Weather Stations Pressure Air Temp Water Temp Dewpoint Dewpoint Depression Visibility Wind Speed Wind Dir Waves Ship Positions

Oceanographic research ship Pelagia (Netherlands)

Detailed information on ship capabilities available from University of Delaware's Ocean Information Center and ARCUS's ALIAS (Arctic Logistics Information and Support) project.

Last reported at 2020-Jan-14 09:00 UTC. Time now 2020-Jan-19 01:18 UTC.
Position N 25°36' W 077°36'.

Length 66 m; beam 13 m.

Type: Dredging. MMSI: 244925000.

Barometer 1024.7 mb

Date/timePositionNaut miles runAvg speedWind from/ knotsBaromVisibWave heightAir tempDewpointWater temp
2020-Jan-14 09:00N 25°36' W 077°36'8 8.1 1024.7
2020-Jan-14 08:00N 25°42' W 077°42'6 6.0 1024.8
2020-Jan-14 07:00N 25°48' W 077°42'8 8.1 1025.6
2020-Jan-14 06:00N 25°54' W 077°48'5 5.4 1026.0
2020-Jan-14 05:00N 25°54' W 077°54'8 8.1 1026.5
2020-Jan-14 04:00N 26°00' W 078°00'8 4.0 1027.1
2020-Jan-14 02:00N 26°06' W 078°06'5 5.4 1026.5
2020-Jan-14 01:00N 26°06' W 078°12'8 8.1 1026.1
2020-Jan-14 00:00N 26°12' W 078°18'5 5.4 1025.9
2020-Jan-13 23:00N 26°12' W 078°24'8 8.1 1025.8
2020-Jan-13 22:00N 26°18' W 078°30'8 8.1 1025.4
2020-Jan-13 21:00N 26°24' W 078°36'0 0.0 1025.6
2020-Jan-13 20:00N 26°24' W 078°36'8 8.1 1025.4
2020-Jan-13 19:00N 26°30' W 078°42'5 5.4 1025.9
2020-Jan-13 18:00N 26°30' W 078°48'0 0.0 1026.8
2020-Jan-13 17:00N 26°30' W 078°48'0 0.0 1027.5
2020-Jan-13 16:00N 26°30' W 078°48'0 0.0 1028.1
2020-Jan-13 15:00N 26°30' W 078°48'0 0.0 1028.3
2020-Jan-13 14:00N 26°30' W 078°48'5 5.4 1028.0
2020-Jan-13 13:00N 26°30' W 078°42'8 8.1 1027.3
2020-Jan-13 12:00N 26°24' W 078°36'0 0.0 1026.6
2020-Jan-13 11:00N 26°24' W 078°36'5 5.4 1026.1
2020-Jan-13 10:00N 26°24' W 078°30'8 8.1 1025.6
2020-Jan-13 09:00N 26°18' W 078°24'5 5.4 1025.1
2020-Jan-13 08:00N 26°18' W 078°18'5 5.4 1025.6
2020-Jan-13 07:00N 26°18' W 078°12'8 8.1 1026.1
2020-Jan-13 06:00N 26°12' W 078°06'0 0.0 1026.3
2020-Jan-13 05:00N 26°12' W 078°06'8 8.1 1026.5
2020-Jan-13 04:00N 26°06' W 078°00'5 5.4 1026.7
2020-Jan-13 03:00N 26°06' W 077°54'5 5.4 1026.7
2020-Jan-13 02:00N 26°06' W 077°48'5 5.4 1026.7
2020-Jan-13 01:00N 26°06' W 077°42'8 8.1 1026.6
2020-Jan-13 00:00N 26°00' W 077°36'1212.3 1026.8
2020-Jan-12 23:00N 25°54' W 077°24'8 8.1 1026.4
2020-Jan-12 22:00N 25°48' W 077°18'1110.8 1025.2
2020-Jan-12 21:00N 25°48' W 077°06'8 8.1 1024.5
2020-Jan-12 20:00N 25°42' W 077°00'1110.8 1025.1
2020-Jan-12 19:00N 25°42' W 076°48'8 8.1 1025.4
2020-Jan-12 18:00N 25°36' W 076°42'17 8.7 1025.9
2020-Jan-12 16:00N 25°30' W 076°24'8 8.1 1027.2
2020-Jan-12 15:00N 25°24' W 076°18'1212.4 1027.9
2020-Jan-12 14:00N 25°18' W 076°06'8 8.1 1027.2
2020-Jan-12 13:00N 25°12' W 076°00'8 8.1 1026.7
2020-Jan-12 12:00N 25°06' W 075°54'1212.4 1026.2
2020-Jan-12 11:00N 25°00' W 075°42'5 5.4 1025.9
2020-Jan-12 10:00N 25°00' W 075°36'8 8.1 1025.3
2020-Jan-12 09:00N 24°54' W 075°30'1212.4 1025.2
2020-Jan-12 08:00N 24°48' W 075°18'8 8.1 1025.1
2020-Jan-12 07:00N 24°42' W 075°12'1212.4 1025.0
2020-Jan-12 06:00N 24°36' W 075°00'8 8.1 1025.1
2020-Jan-12 05:00N 24°30' W 074°54'5 5.5 1025.2
2020-Jan-12 04:00N 24°30' W 074°48'1212.5 1025.5
2020-Jan-12 03:00N 24°24' W 074°36'8 8.1 1025.4
2020-Jan-12 02:00N 24°18' W 074°30'1212.5 1025.3
2020-Jan-12 01:00N 24°12' W 074°18'8 8.1 1025.1
2020-Jan-12 00:00N 24°06' W 074°12'8 8.1 1024.4
2020-Jan-11 23:00N 24°00' W 074°06'8 8.1 1023.9
2020-Jan-11 22:00N 23°54' W 074°00'18 8.8 1023.9
2020-Jan-11 20:00N 23°48' W 073°42'1312.5 1023.3
2020-Jan-11 19:00N 23°42' W 073°30'16 8.1 1023.5
2020-Jan-11 17:00N 23°30' W 073°18'1312.5 1024.9
2020-Jan-11 16:00N 23°24' W 073°06'6 5.5 1025.5
2020-Jan-11 15:00N 23°24' W 073°00'8 8.1 1025.8
2020-Jan-11 14:00N 23°18' W 072°54'1312.6 1025.5
2020-Jan-11 13:00N 23°12' W 072°42'8 8.2 1024.7
2020-Jan-11 12:00N 23°06' W 072°36'2010.2 1024.2
2020-Jan-11 10:00N 22°54' W 072°18'8 8.2 1023.2
2020-Jan-11 09:00N 22°48' W 072°12'1312.6 1023.0
2020-Jan-11 08:00N 22°42' W 072°00'6 5.5 1023.0
2020-Jan-11 07:00N 22°42' W 071°54'8 8.2 1023.2
2020-Jan-11 06:00N 22°36' W 071°48'1312.6 1023.6
2020-Jan-11 05:00N 22°30' W 071°36'8 8.2 1023.9
2020-Jan-11 04:00N 22°24' W 071°30'18 8.8 1024.0
2020-Jan-11 02:00N 22°18' W 071°12'8 8.2 1023.9
2020-Jan-11 01:00N 22°12' W 071°06'8 8.2 1023.3
2020-Jan-11 00:00N 22°06' W 071°00'8 8.2 1022.9
2020-Jan-10 23:00N 22°00' W 070°54'6 5.6 1022.3
2020-Jan-10 22:00N 22°00' W 070°48'1312.6 1021.8
2020-Jan-10 21:00N 21°54' W 070°36'8 8.2 1021.5
2020-Jan-10 20:00N 21°48' W 070°30'8 8.2 1021.5
2020-Jan-10 19:00N 21°42' W 070°24'1312.7 1021.4
2020-Jan-10 18:00N 21°36' W 070°12'8 8.2 1021.8
2020-Jan-10 17:00N 21°30' W 070°06'1312.7 1022.5
2020-Jan-10 16:00N 21°24' W 069°54'8 8.2 1023.7
2020-Jan-10 15:00N 21°18' W 069°48'1111.2 1024.4
2020-Jan-10 14:00N 21°18' W 069°36'8 8.2 1024.0
2020-Jan-10 13:00N 21°12' W 069°30'8 8.2 1023.4
2020-Jan-10 12:00N 21°06' W 069°24'8 8.2 1022.5
2020-Jan-10 11:00N 21°00' W 069°18'1312.7 1021.4
2020-Jan-10 10:00N 20°54' W 069°06'13 6.4 1020.8
2020-Jan-10 08:00N 20°48' W 068°54'1312.7 1020.9
2020-Jan-10 07:00N 20°42' W 068°42'8 8.2 1021.2
2020-Jan-10 06:00N 20°36' W 068°36'8 8.2 1021.6
2020-Jan-10 05:00N 20°30' W 068°30'1312.7 1022.1
2020-Jan-10 04:00N 20°24' W 068°18'8 8.2 1022.8
2020-Jan-10 03:00N 20°18' W 068°12'6 5.6 1023.0
2020-Jan-10 02:00N 20°18' W 068°06'8 8.2 1022.9
2020-Jan-10 01:00N 20°12' W 068°00'1312.8 1022.6
2020-Jan-10 00:00N 20°06' W 067°48'8 8.2 1022.1
2020-Jan-09 23:00N 20°00' W 067°42'8 8.2 1021.3
2020-Jan-09 22:00N 19°54' W 067°36'1312.8 1020.7
2020-Jan-09 21:00N 19°48' W 067°24'8 8.2 1020.8
2020-Jan-09 20:00N 19°42' W 067°18'1111.3 1020.4
2020-Jan-09 19:00N 19°42' W 067°06'8 8.2 1020.2
2020-Jan-09 18:00N 19°36' W 067°00'8 8.2 1020.8
2020-Jan-09 17:00N 19°30' W 066°54'1312.8 1021.6
2020-Jan-09 16:00N 19°24' W 066°42'8 8.2 1022.2
2020-Jan-09 15:00N 19°18' W 066°36'8 8.3 1022.7
2020-Jan-09 14:00N 19°12' W 066°30'1312.8 1022.6
2020-Jan-09 13:00N 19°06' W 066°18'8 8.3 1022.1
2020-Jan-09 12:00N 19°00' W 066°12'6 5.7 1021.3
2020-Jan-09 11:00N 19°00' W 066°06'8 8.3 1020.4
2020-Jan-09 10:00N 18°54' W 066°00'1312.8 1019.5
2020-Jan-09 09:00N 18°48' W 065°48'7 7.4 1018.9
2020-Jan-09 08:02N 18°43' W 065°42'135.9
2020-Jan-09 08:00N 18°42' W 065°42'8 8.3 1018.8
2020-Jan-09 07:00N 18°36' W 065°36'8 8.3 1018.7
2020-Jan-09 06:00N 18°30' W 065°30'1111.4 1019.1
2020-Jan-09 05:00N 18°30' W 065°18'8 8.3 1019.8
2020-Jan-09 04:00N 18°24' W 065°12'5 9.5 1020.2
2020-Jan-09 03:30N 18°21' W 065°08'4 7.3
2020-Jan-09 03:00N 18°18' W 065°06'510.8 1020.6
2020-Jan-09 02:30N 18°15' W 065°02'3 6.3
2020-Jan-09 02:00N 18°12' W 065°00'8 8.3 1020.4
2020-Jan-09 01:00N 18°06' W 064°54'8 8.3 1020.1
2020-Jan-09 00:00N 18°00' W 064°48'1312.9 1019.6
2020-Jan-08 23:00N 17°54' W 064°36'8 8.3 1019.0
2020-Jan-08 22:00N 17°48' W 064°30'8 8.3 1018.2
2020-Jan-08 21:00N 17°42' W 064°24'8 8.3 1017.9
2020-Jan-08 20:00N 17°36' W 064°18'8 8.3 1017.8
2020-Jan-08 19:00N 17°30' W 064°12'8 8.3 1017.6
2020-Jan-08 18:00N 17°24' W 064°06'1312.9 1017.8
2020-Jan-08 17:00N 17°18' W 063°54'8 8.3 1018.3
2020-Jan-08 16:00N 17°12' W 063°48'6 5.7 1019.1
2020-Jan-08 15:00N 17°12' W 063°42'8 8.3 1019.6
2020-Jan-08 14:00N 17°06' W 063°36'1312.9 1019.9
2020-Jan-08 13:00N 17°00' W 063°24'8 8.3 1019.5
2020-Jan-08 12:00N 16°54' W 063°18'8 8.3 1018.9
2020-Jan-08 11:00N 16°48' W 063°12'6 5.7 1018.2
2020-Jan-08 10:00N 16°48' W 063°06'1313.0 1017.3
2020-Jan-08 09:00N 16°42' W 062°54'8 8.3 1016.9
2020-Jan-08 08:00N 16°36' W 062°48'8 8.3 1016.5
2020-Jan-08 07:00N 16°30' W 062°42'6 5.8 1016.6
2020-Jan-08 06:00N 16°30' W 062°36'1313.0 1016.8
2020-Jan-08 05:00N 16°24' W 062°24'8 8.3 1017.4
2020-Jan-08 04:00N 16°18' W 062°18'1313.0 1017.6
2020-Jan-08 03:00N 16°12' W 062°06'8 8.3 1017.8
2020-Jan-08 02:00N 16°06' W 062°00'8 8.3 1017.8
2020-Jan-08 01:00N 16°00' W 061°54'1313.0 1017.4
2020-Jan-08 00:00N 15°54' W 061°42'8 8.3 1017.3
2020-Jan-07 23:00N 16°00' W 061°36'12 6.0 1017.1
2020-Jan-07 21:00N 16°12' W 061°36'0 0.0 1015.9
2020-Jan-07 20:00N 16°12' W 061°36'0 0.0 1015.6
2020-Jan-07 19:00N 16°12' W 061°36'0 0.0 1015.5
2020-Jan-07 18:00N 16°12' W 061°36'0 0.0 1015.5
2020-Jan-07 17:00N 16°12' W 061°36'0 0.0 1016.2
2020-Jan-07 16:00N 16°12' W 061°36'0 0.0 1016.9
2020-Jan-07 15:00N 16°12' W 061°36'0 0.0 1017.5
2020-Jan-07 14:00N 16°12' W 061°36'0 0.0 1017.8
2020-Jan-07 13:00N 16°12' W 061°36'0 0.0 1017.8
2020-Jan-07 12:00N 16°12' W 061°36'0 0.0 1017.0
2020-Jan-07 11:00N 16°12' W 061°36'0 0.0 1016.2
2020-Jan-07 10:00N 16°12' W 061°36'0 0.0 1015.4
2020-Jan-07 09:00N 16°12' W 061°36'0 0.0 1014.8
2020-Jan-07 08:00N 16°12' W 061°36'0 0.0 1014.6
2020-Jan-07 07:00N 16°12' W 061°36'0 0.0 1014.6
2020-Jan-07 06:00N 16°12' W 061°36'0 0.0 1014.8
2020-Jan-07 05:00N 16°12' W 061°36'0 0.0 1015.3
2020-Jan-07 04:00N 16°12' W 061°36'0 0.0 1015.9
2020-Jan-07 03:00N 16°12' W 061°36'0 0.0 1016.3
2020-Jan-07 02:00N 16°12' W 061°36'0 0.0 1016.3
2020-Jan-07 01:00N 16°12' W 061°36'0 0.0 1016.2
2020-Jan-07 00:00N 16°12' W 061°36'0 0.0 1015.8
2020-Jan-06 23:00N 16°12' W 061°36'0 0.0 1015.3
2020-Jan-06 22:00N 16°12' W 061°36'0 0.0 1014.8
2020-Jan-06 21:00N 16°12' W 061°36'0 0.0 1014.3
2020-Jan-06 20:00N 16°12' W 061°36'0 0.0 1013.9
2020-Jan-06 19:00N 16°12' W 061°36'0 0.0 1013.7
2020-Jan-06 18:00N 16°12' W 061°36'0 0.0 1013.8
2020-Jan-06 17:00N 16°12' W 061°36'0 0.0 1014.4
2020-Jan-06 16:00N 16°12' W 061°36'0 0.0 1015.4
2020-Jan-06 15:00N 16°12' W 061°36'0 0.0 1016.0
2020-Jan-06 14:00N 16°12' W 061°36'0 0.0 1016.3
2020-Jan-06 13:00N 16°12' W 061°36'0 0.0 1016.3
2020-Jan-06 12:00N 16°12' W 061°36'0 0.0 1015.9
2020-Jan-06 11:00N 16°12' W 061°36'0 0.0 1015.0
2020-Jan-06 10:00N 16°12' W 061°36'0 0.0 1013.9
2020-Jan-06 09:00N 16°12' W 061°36'0 0.0 1013.5
2020-Jan-06 08:00N 16°12' W 061°36'0 0.0 1013.3
2020-Jan-06 07:00N 16°12' W 061°36'0 0.0 1013.3
2020-Jan-06 06:00N 16°12' W 061°36'0 0.0 1013.9
2020-Jan-06 05:00N 16°12' W 061°36'0 0.0 1014.5
2020-Jan-06 04:00N 16°12' W 061°36'0 0.0 1014.9
2020-Jan-06 03:00N 16°12' W 061°36'0 0.0 1015.3
2020-Jan-06 02:00N 16°12' W 061°36'0 0.0 1015.5
2020-Jan-06 01:00N 16°12' W 061°36'0 0.0 1015.3
2020-Jan-06 00:00N 16°12' W 061°36'0 0.0 1015.1
2020-Jan-05 23:00N 16°12' W 061°36'0 0.0 1014.7
2020-Jan-05 22:00N 16°12' W 061°36'0 0.0 1014.2
2020-Jan-05 21:00N 16°12' W 061°36'0 0.0 1013.9
2020-Jan-05 20:00N 16°12' W 061°36'0 0.0 1013.8
2020-Jan-05 19:00N 16°12' W 061°36'0 0.0 1014.0
2020-Jan-05 18:00N 16°12' W 061°36'0 0.0 1014.5
2020-Jan-05 17:00N 16°12' W 061°36'0 0.0 1015.4
2020-Jan-05 16:00N 16°12' W 061°36'0 0.0 1016.3
2020-Jan-05 15:00N 16°12' W 061°36'0 0.0 1017.1
2020-Jan-05 14:00N 16°12' W 061°36'0 0.0 1017.3
2020-Jan-05 13:00N 16°12' W 061°36'0 0.0 1017.5
2020-Jan-05 12:00N 16°12' W 061°36'0 0.0 1017.0
2020-Jan-05 11:00N 16°12' W 061°36'0 0.0 1016.2
2020-Jan-05 10:00N 16°12' W 061°36'0 0.0 1015.5
2020-Jan-05 09:00N 16°12' W 061°36'0 0.0 1015.1
2020-Jan-05 08:00N 16°12' W 061°36'0 0.0 1015.1
2020-Jan-05 07:00N 16°12' W 061°36'0 0.0 1014.9
2020-Jan-05 06:00N 16°12' W 061°36'0 0.0 1015.6
2020-Jan-05 05:00N 16°12' W 061°36'0 0.0 1016.2
2020-Jan-05 04:00N 16°12' W 061°36'0 0.0 1016.8
2020-Jan-05 03:00N 16°12' W 061°36'0 0.0 1017.1
2020-Jan-05 02:00N 16°12' W 061°36'0 0.0 1017.5
2020-Jan-05 01:00N 16°12' W 061°36'0 0.0 1017.3
2020-Jan-05 00:00N 16°12' W 061°36'0 0.0 1016.9
2020-Jan-04 23:00N 16°12' W 061°36'0 0.0 1016.6
2020-Jan-04 22:00N 16°12' W 061°36'0 0.0 1016.2
2020-Jan-04 21:00N 16°12' W 061°36'0 0.0 1016.0
2020-Jan-04 20:00N 16°12' W 061°36'0 0.0 1015.7
2020-Jan-04 19:00N 16°12' W 061°36'0 0.0 1015.7
2020-Jan-04 18:00N 16°12' W 061°36'0 0.0 1016.0
2020-Jan-04 16:00N 16°12' W 061°36'0 0.0 1017.8
2020-Jan-04 15:00N 16°12' W 061°36'0 0.0 1018.8
2020-Jan-04 14:00N 16°12' W 061°36'0 0.0 1019.0
2020-Jan-04 13:00N 16°12' W 061°36'0 0.0 1019.1
2020-Jan-04 12:00N 16°12' W 061°36'0 0.0 1018.4
2020-Jan-04 11:00N 16°12' W 061°36'0 0.0 1017.5
2020-Jan-04 10:00N 16°12' W 061°36'0 0.0 1016.8
2020-Jan-04 09:00N 16°12' W 061°36'   1016.5

Dump ship's entire track history